createdAt,value
2018-09-12T00:00:43.702Z,9.50
2018-09-12T00:03:11.735Z,9.67
2018-09-12T00:05:39.763Z,8.50
2018-09-12T00:08:07.810Z,8.90
2018-09-12T00:10:35.902Z,9.37
2018-09-12T00:13:03.915Z,9.73
2018-09-12T00:15:31.950Z,10.60
2018-09-12T00:18:00.014Z,10.87
2018-09-12T00:20:28.037Z,13.07
2018-09-12T00:22:56.406Z,12.13
2018-09-12T00:25:24.453Z,11.70
2018-09-12T00:27:52.476Z,13.57
2018-09-12T00:30:20.530Z,13.07
2018-09-12T00:32:48.563Z,12.60
2018-09-12T00:35:16.599Z,12.13
2018-09-12T00:37:44.688Z,12.77
2018-09-12T00:40:12.722Z,12.13
2018-09-12T00:42:40.819Z,12.33
2018-09-12T00:45:08.899Z,13.30
2018-09-12T00:47:36.934Z,10.80
2018-09-12T00:50:05.019Z,11.33
2018-09-12T00:52:33.053Z,10.73
2018-09-12T00:55:01.197Z,10.67
2018-09-12T00:57:29.243Z,11.23
2018-09-12T00:59:57.266Z,11.10
2018-09-12T01:02:25.317Z,10.63
2018-09-12T01:04:53.362Z,11.13
2018-09-12T01:07:21.390Z,10.57
2018-09-12T01:09:49.507Z,10.83
2018-09-12T01:12:17.577Z,10.23
2018-09-12T01:14:45.666Z,10.20
2018-09-12T01:17:13.701Z,9.63
2018-09-12T01:19:41.730Z,10.73
2018-09-12T01:22:09.774Z,9.90
2018-09-12T01:24:37.891Z,9.90
2018-09-12T01:27:05.922Z,9.10
2018-09-12T01:29:33.967Z,9.10
2018-09-12T01:32:02.035Z,10.57
2018-09-12T01:34:30.150Z,9.93
2018-09-12T01:36:58.208Z,11.07
2018-09-12T01:39:26.260Z,10.13
2018-09-12T01:41:54.288Z,10.30
2018-09-12T01:44:22.331Z,10.90
2018-09-12T01:46:50.488Z,10.80
2018-09-12T01:49:19.159Z,11.43
2018-09-12T01:51:48.591Z,10.73
2018-09-12T01:54:17.563Z,9.83
2018-09-12T01:56:45.851Z,10.37
2018-09-12T01:59:14.229Z,9.07
2018-09-12T02:01:43.106Z,8.60
2018-09-12T02:04:11.125Z,8.07
2018-09-12T02:06:39.250Z,7.57
2018-09-12T02:09:08.267Z,7.50
2018-09-12T02:11:36.295Z,7.50
2018-09-12T02:14:04.439Z,6.90
2018-09-12T02:16:32.571Z,6.13
2018-09-12T02:19:00.693Z,6.50
2018-09-12T02:21:28.813Z,6.27
2018-09-12T02:23:56.903Z,6.20
2018-09-12T02:26:24.956Z,7.10
2018-09-12T02:28:53.010Z,7.23
2018-09-12T02:31:21.046Z,6.90
2018-09-12T02:33:49.103Z,6.53
2018-09-12T02:36:22.815Z,7.33
2018-09-12T02:38:50.885Z,7.00
2018-09-12T02:41:18.964Z,6.93
2018-09-12T02:43:47.129Z,6.97
2018-09-12T02:46:15.155Z,7.33
2018-09-12T02:48:43.206Z,6.57
2018-09-12T02:51:11.258Z,6.57
2018-09-12T02:53:39.298Z,6.40
2018-09-12T02:56:07.336Z,6.50
2018-09-12T02:58:35.364Z,7.47
2018-09-12T03:01:03.416Z,6.40
2018-09-12T03:03:31.472Z,7.07
2018-09-12T03:05:59.568Z,6.53
2018-09-12T03:08:27.640Z,6.43
2018-09-12T03:10:55.720Z,6.47
2018-09-12T03:13:23.790Z,6.90
2018-09-12T03:15:51.855Z,6.40
2018-09-12T03:18:19.923Z,6.27
2018-09-12T03:20:48.086Z,5.60
2018-09-12T03:23:16.068Z,6.50
2018-09-12T03:25:44.102Z,6.47
2018-09-12T03:28:12.208Z,6.83
2018-09-12T03:30:40.279Z,6.47
2018-09-12T03:33:08.382Z,7.57
2018-09-12T03:35:36.440Z,6.83
2018-09-12T03:38:04.587Z,8.60
2018-09-12T03:40:32.659Z,8.13
2018-09-12T03:43:00.708Z,7.10
2018-09-12T03:45:28.820Z,7.57
2018-09-12T03:47:56.962Z,6.93
2018-09-12T03:50:24.972Z,6.60
2018-09-12T03:52:53.031Z,6.40
2018-09-12T03:55:21.103Z,5.93
2018-09-12T03:57:49.170Z,5.60
2018-09-12T04:00:17.717Z,5.40
2018-09-12T04:02:46.094Z,5.80
2018-09-12T04:05:14.131Z,5.37
2018-09-12T04:07:42.187Z,5.77
2018-09-12T04:10:10.231Z,5.37
2018-09-12T04:12:38.259Z,5.37
2018-09-12T04:15:06.424Z,6.33
2018-09-12T04:17:35.991Z,6.13
2018-09-12T04:20:04.108Z,6.00
2018-09-12T04:22:32.551Z,6.23
2018-09-12T04:25:00.587Z,6.20
2018-09-12T04:27:28.693Z,6.37
2018-09-12T04:29:56.765Z,5.87
2018-09-12T04:32:25.455Z,6.37
2018-09-12T04:34:53.563Z,5.50
2018-09-12T04:37:21.755Z,5.70
2018-09-12T04:39:49.812Z,5.90
2018-09-12T04:42:18.812Z,6.10
2018-09-12T04:44:47.140Z,5.63
2018-09-12T04:47:15.187Z,6.27
2018-09-12T04:49:43.241Z,5.80
2018-09-12T04:52:11.295Z,5.57
2018-09-12T04:54:39.328Z,5.87
2018-09-12T04:57:07.407Z,6.03
2018-09-12T04:59:35.587Z,6.50
2018-09-12T05:02:03.687Z,6.00
2018-09-12T05:04:31.767Z,6.03
2018-09-12T05:06:59.836Z,6.60
2018-09-12T05:09:27.887Z,6.30
2018-09-12T05:11:55.926Z,6.77
2018-09-12T05:14:24.033Z,6.10
2018-09-12T05:16:52.096Z,6.97
2018-09-12T05:19:20.151Z,7.37
2018-09-12T05:21:48.178Z,6.60
2018-09-12T05:24:16.224Z,6.97
2018-09-12T05:26:44.314Z,5.40
2018-09-12T05:29:12.372Z,2.90
2018-09-12T05:31:40.700Z,2.30
2018-09-12T05:34:09.000Z,1.70
2018-09-12T05:36:37.371Z,1.30
2018-09-12T05:39:08.868Z,1.70
2018-09-12T05:41:37.312Z,2.00
2018-09-12T05:44:05.808Z,1.20
2018-09-12T05:46:34.602Z,1.40
2018-09-12T05:49:03.159Z,1.20
2018-09-12T05:51:31.503Z,1.20
2018-09-12T05:53:59.823Z,1.13
2018-09-12T05:56:28.112Z,1.20
2018-09-12T05:58:56.688Z,1.07
2018-09-12T06:01:25.014Z,1.10
2018-09-12T06:03:53.324Z,1.00
2018-09-12T06:06:21.613Z,0.97
2018-09-12T06:08:49.670Z,1.00
2018-09-12T06:11:17.712Z,1.00
2018-09-12T06:13:45.747Z,1.47
2018-09-12T06:16:13.766Z,1.10
2018-09-12T06:18:41.900Z,1.00
2018-09-12T06:21:09.923Z,0.83
2018-09-12T06:23:38.051Z,0.90
2018-09-12T06:26:06.073Z,1.10
2018-09-12T06:28:34.175Z,1.40
2018-09-12T06:31:02.236Z,1.13
2018-09-12T06:33:30.254Z,1.00
2018-09-12T06:35:58.299Z,1.20
2018-09-12T06:38:26.354Z,1.30
2018-09-12T06:40:54.821Z,1.90
2018-09-12T06:43:22.942Z,1.63
2018-09-12T06:45:50.991Z,1.80
2018-09-12T06:48:19.011Z,2.00
2018-09-12T06:50:47.031Z,2.00
2018-09-12T06:53:15.052Z,1.83
2018-09-12T06:55:43.099Z,2.00
2018-09-12T06:58:11.128Z,1.90
2018-09-12T07:00:39.184Z,2.10
2018-09-12T07:03:07.267Z,2.10
2018-09-12T07:05:35.342Z,2.27
2018-09-12T07:08:03.367Z,2.57
2018-09-12T07:10:31.475Z,2.90
2018-09-12T07:12:59.508Z,2.83
2018-09-12T07:15:27.537Z,2.60
2018-09-12T07:17:55.545Z,2.80
2018-09-12T07:20:23.783Z,2.77
2018-09-12T07:22:52.160Z,3.03
2018-09-12T07:25:20.585Z,3.07
2018-09-12T07:27:48.908Z,3.10
2018-09-12T07:30:17.341Z,3.00
2018-09-12T07:32:45.647Z,2.87
2018-09-12T07:35:13.999Z,3.67
2018-09-12T07:37:42.280Z,3.60
2018-09-12T07:40:10.611Z,4.00
2018-09-12T07:42:38.962Z,3.37
2018-09-12T07:45:07.304Z,3.30
2018-09-12T07:47:35.608Z,3.53
2018-09-12T07:50:03.917Z,3.50
2018-09-12T07:52:32.220Z,3.23
2018-09-12T07:55:00.512Z,2.87
2018-09-12T07:57:28.594Z,3.43
2018-09-12T07:59:56.652Z,3.23
2018-09-12T08:02:24.771Z,3.10
2018-09-12T08:04:52.821Z,2.47
2018-09-12T08:07:20.950Z,3.10
2018-09-12T08:09:49.086Z,2.53
2018-09-12T08:12:17.203Z,2.43
2018-09-12T08:14:45.181Z,2.60
2018-09-12T08:17:13.239Z,2.30
2018-09-12T08:19:41.295Z,2.30
2018-09-12T08:22:09.487Z,1.77
2018-09-12T08:24:37.524Z,2.20
2018-09-12T08:27:05.568Z,2.47
2018-09-12T08:29:33.607Z,1.87
2018-09-12T08:32:01.662Z,1.83
2018-09-12T08:34:29.724Z,1.33
2018-09-12T08:36:57.995Z,1.80
2018-09-12T08:39:26.022Z,1.60
2018-09-12T08:41:54.108Z,1.57
2018-09-12T08:44:22.320Z,1.40
2018-09-12T08:46:50.354Z,1.60
2018-09-12T08:49:18.436Z,1.40
2018-09-12T08:51:46.507Z,1.60
2018-09-12T08:54:14.589Z,1.23
2018-09-12T08:56:42.741Z,1.53
2018-09-12T08:59:10.715Z,1.50
2018-09-12T09:01:39.364Z,1.70
2018-09-12T09:04:07.522Z,1.60
2018-09-12T09:06:35.658Z,1.57
2018-09-12T09:09:04.467Z,1.70
2018-09-12T09:11:32.510Z,1.67
2018-09-12T09:14:00.701Z,2.33
2018-09-12T09:16:28.718Z,1.47
2018-09-12T09:18:56.730Z,1.60
2018-09-12T09:21:24.771Z,1.80
2018-09-12T09:23:52.786Z,1.70
2018-09-12T09:26:20.862Z,1.40
2018-09-12T09:28:48.894Z,1.43
2018-09-12T09:31:16.947Z,1.10
2018-09-12T09:33:44.978Z,1.33
2018-09-12T09:36:13.053Z,1.20
2018-09-12T09:38:41.087Z,1.10
2018-09-12T09:41:09.139Z,1.20
2018-09-12T09:43:37.196Z,0.93
2018-09-12T09:46:05.379Z,1.27
2018-09-12T09:48:33.481Z,1.40
2018-09-12T09:51:01.530Z,1.00
2018-09-12T09:53:29.594Z,1.10
2018-09-12T09:55:57.699Z,1.03
2018-09-12T09:58:25.735Z,1.50
2018-09-12T10:00:59.245Z,1.57
2018-09-12T10:03:32.726Z,1.10
2018-09-12T10:06:06.215Z,1.20
2018-09-12T10:08:39.706Z,1.00
2018-09-12T10:11:07.751Z,1.10
2018-09-12T10:13:35.861Z,1.27
2018-09-12T10:16:03.877Z,1.03
2018-09-12T10:18:32.003Z,1.37
2018-09-12T10:21:00.055Z,1.33
2018-09-12T10:23:28.101Z,1.50
2018-09-12T10:25:56.106Z,1.00
2018-09-12T10:28:24.180Z,1.10
2018-09-12T10:30:52.263Z,1.50
2018-09-12T10:33:20.358Z,1.40
2018-09-12T10:35:48.405Z,1.20
2018-09-12T10:38:16.491Z,1.93
2018-09-12T10:40:44.740Z,1.30
2018-09-12T10:43:12.806Z,1.23
2018-09-12T10:45:40.916Z,1.20
2018-09-12T10:48:08.947Z,1.37
2018-09-12T10:50:37.042Z,1.30
2018-09-12T10:53:05.120Z,0.90
2018-09-12T10:55:33.187Z,1.20
2018-09-12T10:58:01.283Z,1.13
2018-09-12T11:00:29.442Z,1.57
2018-09-12T11:02:57.492Z,1.40
2018-09-12T11:05:25.510Z,1.40
2018-09-12T11:07:53.540Z,1.20
2018-09-12T11:10:21.626Z,1.30
2018-09-12T11:12:49.682Z,1.37
2018-09-12T11:15:17.829Z,1.00
2018-09-12T11:17:45.927Z,0.90
2018-09-12T11:20:13.943Z,1.00
2018-09-12T11:22:42.062Z,0.87
2018-09-12T11:25:10.079Z,0.90
2018-09-12T11:27:38.206Z,0.80
2018-09-12T11:30:06.303Z,1.00
2018-09-12T11:32:34.326Z,1.10
2018-09-12T11:35:02.363Z,0.97
2018-09-12T11:37:30.448Z,1.40
2018-09-12T11:39:58.503Z,0.90
2018-09-12T11:42:26.643Z,1.17
2018-09-12T11:44:54.728Z,1.30
2018-09-12T11:47:23.307Z,1.03
2018-09-12T11:49:51.348Z,1.30
2018-09-12T11:52:19.397Z,0.93
2018-09-12T11:54:47.406Z,1.17
2018-09-12T11:57:15.501Z,1.27
2018-09-12T11:59:43.559Z,0.93
2018-09-12T12:02:11.597Z,1.00
2018-09-12T12:04:39.703Z,1.30
2018-09-12T12:07:08.183Z,1.57
2018-09-12T12:09:36.259Z,2.20
2018-09-12T12:12:04.356Z,1.30
2018-09-12T12:14:32.483Z,0.90
2018-09-12T12:17:00.495Z,1.23
2018-09-12T12:19:28.643Z,1.20
2018-09-12T12:21:56.719Z,1.17
2018-09-12T12:24:24.760Z,1.00
2018-09-12T12:26:52.876Z,1.47
2018-09-12T12:29:20.931Z,1.10
2018-09-12T12:31:48.954Z,1.53
2018-09-12T12:34:16.995Z,1.47
2018-09-12T12:36:45.037Z,1.10
2018-09-12T12:39:13.079Z,1.00
2018-09-12T12:41:41.312Z,1.40
2018-09-12T12:44:09.359Z,1.20
2018-09-12T12:46:37.660Z,1.20
2018-09-12T12:49:05.727Z,1.27
2018-09-12T12:51:33.963Z,1.33
2018-09-12T12:54:02.376Z,1.27
2018-09-12T12:56:30.472Z,1.10
2018-09-12T12:58:58.626Z,1.10
2018-09-12T13:01:26.688Z,1.37
2018-09-12T13:03:55.197Z,1.10
2018-09-12T13:06:23.647Z,1.60
2018-09-12T13:08:51.733Z,1.30
2018-09-12T13:11:19.767Z,1.40
2018-09-12T13:13:47.811Z,1.60
2018-09-12T13:16:15.880Z,1.83
2018-09-12T13:18:43.906Z,1.40
2018-09-12T13:21:12.006Z,1.90
2018-09-12T13:23:40.001Z,1.50
2018-09-12T13:26:08.032Z,1.57
2018-09-12T13:28:36.130Z,1.30
2018-09-12T13:31:04.161Z,1.67
2018-09-12T13:33:32.292Z,1.50
2018-09-12T13:36:00.415Z,1.37
2018-09-12T13:38:28.488Z,1.33
2018-09-12T13:40:56.546Z,1.27
2018-09-12T13:43:24.775Z,2.43
2018-09-12T13:45:52.895Z,1.40
2018-09-12T13:48:20.983Z,1.20
2018-09-12T13:50:49.475Z,1.00
2018-09-12T13:53:18.605Z,1.33
2018-09-12T13:55:47.109Z,1.23
2018-09-12T13:58:15.415Z,1.40
2018-09-12T14:00:46.019Z,1.10
2018-09-12T14:03:14.773Z,1.10
2018-09-12T14:05:43.068Z,1.20
2018-09-12T14:08:11.384Z,1.10
2018-09-12T14:10:39.675Z,1.10
2018-09-12T14:13:08.032Z,1.20
2018-09-12T14:15:36.473Z,1.10
2018-09-12T14:18:05.510Z,1.00
2018-09-12T14:20:33.816Z,1.03
2018-09-12T14:23:02.671Z,1.00
2018-09-12T14:25:30.984Z,1.00
2018-09-12T14:27:59.311Z,1.00
2018-09-12T14:30:27.692Z,1.20
2018-09-12T14:32:56.170Z,1.63
2018-09-12T14:35:24.521Z,1.50
2018-09-12T14:37:53.800Z,1.20
2018-09-12T14:40:23.064Z,1.50
2018-09-12T14:42:51.429Z,1.63
2018-09-12T14:45:19.772Z,1.57
2018-09-12T14:47:48.119Z,1.63
2018-09-12T14:50:16.463Z,1.60
2018-09-12T14:52:44.836Z,1.27
2018-09-12T14:55:13.313Z,1.50
2018-09-12T14:57:41.659Z,1.40
2018-09-12T15:00:09.928Z,1.60
2018-09-12T15:02:38.317Z,1.30
2018-09-12T15:05:06.807Z,1.50
2018-09-12T15:07:35.105Z,1.60
2018-09-12T15:10:03.391Z,1.40
2018-09-12T15:12:31.969Z,1.23
2018-09-12T15:15:00.749Z,1.30
2018-09-12T15:17:29.080Z,1.40
2018-09-12T15:19:57.522Z,1.27
2018-09-12T15:22:25.840Z,1.50
2018-09-12T15:24:54.163Z,1.17
2018-09-12T15:27:22.492Z,1.60
2018-09-12T15:29:50.776Z,1.53
2018-09-12T15:32:19.291Z,1.43
2018-09-12T15:34:47.583Z,1.87
2018-09-12T15:37:16.016Z,2.23
2018-09-12T15:39:44.252Z,1.27
2018-09-12T15:42:12.571Z,1.97
2018-09-12T15:44:40.989Z,1.43
2018-09-12T15:47:09.345Z,1.43
2018-09-12T15:49:37.641Z,1.80
2018-09-12T15:52:06.125Z,1.50
2018-09-12T15:54:34.450Z,1.50
2018-09-12T15:57:02.875Z,1.70
2018-09-12T15:59:31.228Z,1.43
2018-09-12T16:01:59.871Z,1.50
2018-09-12T16:04:28.164Z,1.50
2018-09-12T16:06:56.588Z,1.53
2018-09-12T16:09:24.878Z,1.60
2018-09-12T16:11:53.192Z,2.00
2018-09-12T16:14:21.584Z,1.17
2018-09-12T16:16:49.749Z,1.90
2018-09-12T16:19:17.859Z,1.87
2018-09-12T16:21:45.919Z,1.43
2018-09-12T16:24:13.960Z,1.43
2018-09-12T16:26:42.108Z,1.60
2018-09-12T16:29:10.282Z,1.73
2018-09-12T16:31:38.398Z,1.80
2018-09-12T16:34:06.500Z,2.17
2018-09-12T16:36:34.555Z,1.90
2018-09-12T16:39:02.619Z,1.30
2018-09-12T16:41:30.696Z,1.50
2018-09-12T16:43:58.804Z,1.73
2018-09-12T16:46:26.882Z,1.87
2018-09-12T16:48:54.921Z,1.80
2018-09-12T16:51:23.028Z,1.70
2018-09-12T16:53:51.060Z,1.50
2018-09-12T16:56:19.517Z,1.93
2018-09-12T16:58:47.777Z,1.70
2018-09-12T17:01:15.831Z,1.40
2018-09-12T17:03:43.915Z,1.43
2018-09-12T17:06:12.002Z,1.70
2018-09-12T17:08:40.091Z,1.50
2018-09-12T17:11:08.192Z,1.80
2018-09-12T17:13:36.297Z,1.60
2018-09-12T17:16:04.420Z,1.90
2018-09-12T17:18:32.506Z,1.70
2018-09-12T17:21:00.766Z,2.00
2018-09-12T17:23:28.843Z,2.03
2018-09-12T17:25:56.917Z,2.40
2018-09-12T17:28:25.287Z,1.60
2018-09-12T17:30:53.476Z,2.10
2018-09-12T17:33:21.573Z,1.60
2018-09-12T17:35:49.612Z,1.47
2018-09-12T17:38:17.690Z,1.60
2018-09-12T17:40:45.782Z,1.50
2018-09-12T17:43:13.931Z,1.90
2018-09-12T17:45:42.235Z,1.93
2018-09-12T17:48:10.308Z,2.10
2018-09-12T17:50:38.472Z,1.60
2018-09-12T17:53:06.495Z,1.70
2018-09-12T17:55:34.611Z,1.33
2018-09-12T17:58:02.675Z,1.97
2018-09-12T18:00:30.771Z,1.70
2018-09-12T18:02:58.812Z,1.80
2018-09-12T18:05:26.852Z,1.70
2018-09-12T18:07:54.956Z,1.73
2018-09-12T18:10:23.019Z,1.93
2018-09-12T18:12:51.051Z,1.93
2018-09-12T18:15:19.124Z,1.60
2018-09-12T18:17:47.196Z,2.03
2018-09-12T18:20:15.318Z,2.53
2018-09-12T18:22:43.386Z,1.40
2018-09-12T18:25:11.462Z,1.77
2018-09-12T18:27:39.547Z,1.60
2018-09-12T18:30:07.910Z,1.83
2018-09-12T18:32:35.971Z,1.30
2018-09-12T18:35:04.037Z,1.77
2018-09-12T18:37:32.136Z,1.60
2018-09-12T18:40:00.215Z,1.80
2018-09-12T18:42:28.270Z,1.93
2018-09-12T18:44:56.333Z,1.50
2018-09-12T18:47:24.447Z,1.60
2018-09-12T18:49:52.528Z,1.43
2018-09-12T18:52:20.759Z,1.70
2018-09-12T18:54:48.784Z,1.80
2018-09-12T18:57:17.222Z,2.00
2018-09-12T18:59:45.364Z,1.70
2018-09-12T19:02:13.450Z,2.03
2018-09-12T19:04:41.622Z,1.93
2018-09-12T19:07:09.832Z,2.03
2018-09-12T19:09:37.896Z,1.97
2018-09-12T19:12:06.064Z,2.03
2018-09-12T19:14:34.144Z,1.80
2018-09-12T19:17:02.225Z,1.50
2018-09-12T19:19:30.304Z,1.70
2018-09-12T19:21:58.369Z,1.80
2018-09-12T19:24:26.565Z,2.00
2018-09-12T19:26:54.599Z,2.03
2018-09-12T19:29:22.895Z,1.80
2018-09-12T19:31:50.991Z,2.10
2018-09-12T19:34:19.094Z,1.73
2018-09-12T19:36:47.124Z,2.00
2018-09-12T19:39:15.193Z,1.63
2018-09-12T19:41:43.401Z,1.83
2018-09-12T19:44:11.410Z,2.00
2018-09-12T19:46:39.687Z,2.03
2018-09-12T19:49:07.970Z,2.10
2018-09-12T19:51:36.021Z,1.70
2018-09-12T19:54:04.076Z,2.53
2018-09-12T19:56:32.105Z,2.00
2018-09-12T19:59:00.140Z,1.77
2018-09-12T20:01:28.218Z,2.00
2018-09-12T20:03:56.266Z,2.00
2018-09-12T20:06:24.355Z,2.10
2018-09-12T20:08:52.518Z,2.00
2018-09-12T20:11:20.586Z,2.30
2018-09-12T20:13:48.654Z,2.07
2018-09-12T20:16:16.748Z,2.13
2018-09-12T20:18:44.787Z,1.50
2018-09-12T20:21:12.869Z,1.53
2018-09-12T20:23:41.030Z,1.53
2018-09-12T20:26:09.127Z,2.00
2018-09-12T20:28:40.775Z,1.87
2018-09-12T20:31:09.259Z,2.10
2018-09-12T20:33:37.633Z,2.07
2018-09-12T20:36:06.541Z,1.83
2018-09-12T20:38:34.704Z,2.10
2018-09-12T20:41:02.996Z,2.30
2018-09-12T20:43:31.044Z,1.73
2018-09-12T20:47:28.406Z,2.27
2018-09-12T20:49:56.645Z,1.90
2018-09-12T20:52:24.662Z,1.90
2018-09-12T20:54:52.732Z,2.43
2018-09-12T20:57:20.824Z,2.40
2018-09-12T20:59:48.867Z,2.60
2018-09-12T21:02:16.942Z,2.40
2018-09-12T21:04:44.978Z,2.37
2018-09-12T21:07:13.146Z,2.07
2018-09-12T21:09:41.212Z,2.10
2018-09-12T21:12:09.282Z,2.67
2018-09-12T21:14:37.322Z,2.47
2018-09-12T21:17:05.424Z,2.67
2018-09-12T21:19:33.455Z,2.57
2018-09-12T21:22:01.543Z,2.67
2018-09-12T21:24:29.579Z,2.37
2018-09-12T21:26:57.591Z,2.57
2018-09-12T21:29:25.626Z,2.50
2018-09-12T21:31:53.642Z,2.30
2018-09-12T21:34:21.684Z,2.50
2018-09-12T21:36:49.719Z,2.57
2018-09-12T21:39:17.753Z,2.60
2018-09-12T21:41:45.766Z,2.70
2018-09-12T21:44:13.796Z,2.77
2018-09-12T21:46:41.824Z,2.53
2018-09-12T21:49:09.841Z,2.40
2018-09-12T21:51:37.927Z,2.60
2018-09-12T21:54:05.983Z,2.37
2018-09-12T21:56:34.003Z,2.87
2018-09-12T21:59:02.038Z,2.33
2018-09-12T22:01:30.047Z,2.67
2018-09-12T22:03:58.059Z,2.97
2018-09-12T22:06:26.122Z,2.40
2018-09-12T22:08:54.151Z,2.37
2018-09-12T22:11:22.174Z,3.10
2018-09-12T22:13:50.232Z,2.37
2018-09-12T22:16:18.245Z,2.50
2018-09-12T22:18:46.253Z,2.67
2018-09-12T22:21:14.275Z,2.47
2018-09-12T22:23:42.295Z,2.30
2018-09-12T22:26:10.331Z,2.27
2018-09-12T22:28:38.388Z,2.80
2018-09-12T22:31:06.573Z,2.80
2018-09-12T22:33:34.598Z,2.77
2018-09-12T22:36:02.624Z,2.03
2018-09-12T22:38:30.653Z,2.40
2018-09-12T22:40:58.668Z,2.20
2018-09-12T22:43:26.695Z,2.60
2018-09-12T22:45:54.724Z,2.43
2018-09-12T22:48:22.731Z,2.33
2018-09-12T22:50:50.752Z,2.70
2018-09-12T22:53:18.790Z,2.53
2018-09-12T22:55:46.799Z,2.40
2018-09-12T22:58:14.820Z,2.80
2018-09-12T23:00:42.859Z,2.67
2018-09-12T23:03:10.867Z,3.20
2018-09-12T23:05:38.883Z,2.70
2018-09-12T23:08:06.912Z,2.20
2018-09-12T23:10:34.944Z,2.50
2018-09-12T23:13:02.958Z,2.33
2018-09-12T23:15:30.967Z,2.40
2018-09-12T23:17:58.990Z,2.47
2018-09-12T23:20:27.011Z,2.47
2018-09-12T23:22:55.048Z,2.40
2018-09-12T23:25:23.098Z,2.10
2018-09-12T23:27:51.114Z,2.67
2018-09-12T23:30:19.132Z,2.30
2018-09-12T23:32:47.168Z,2.27
2018-09-12T23:35:15.190Z,2.70
2018-09-12T23:37:43.201Z,2.57
2018-09-12T23:40:11.216Z,2.40
2018-09-12T23:42:39.232Z,2.67
2018-09-12T23:45:07.291Z,2.77
2018-09-12T23:47:35.331Z,2.57
2018-09-12T23:50:03.368Z,3.13
2018-09-12T23:52:31.390Z,2.60
2018-09-12T23:54:59.391Z,3.20
2018-09-12T23:57:27.412Z,3.33
2018-09-12T23:59:55.413Z,3.53
